sensor_id;sensor_type;location;lat;lon;timestamp;pressure;altitude;pressure_sealevel;temperature;humidity
9129;BME280;4599;50.906;6.786;2023-03-15T00:01:32;15257.56;;;-142.83;84.71
9129;BME280;4599;50.906;6.786;2023-03-15T00:05:35;15247.34;;;-142.83;85.41
9129;BME280;4599;50.906;6.786;2023-03-15T00:09:38;15257.56;;;-142.83;85.78
9129;BME280;4599;50.906;6.786;2023-03-15T00:13:39;15241.22;;;-142.83;86.29
9129;BME280;4599;50.906;6.786;2023-03-15T00:17:41;15235.09;;;-142.83;85.61
9129;BME280;4599;50.906;6.786;2023-03-15T00:21:42;15245.31;;;-142.83;86.31
9129;BME280;4599;50.906;6.786;2023-03-15T00:25:46;15247.34;;;-142.83;86.41
9129;BME280;4599;50.906;6.786;2023-03-15T00:29:48;15245.31;;;-142.83;86.29
9129;BME280;4599;50.906;6.786;2023-03-15T00:33:50;15255.53;;;-142.83;86.05
9129;BME280;4599;50.906;6.786;2023-03-15T00:37:53;15251.44;;;-142.83;86.71
9129;BME280;4599;50.906;6.786;2023-03-15T00:41:56;15237.13;;;-142.83;86.74
9129;BME280;4599;50.906;6.786;2023-03-15T00:45:58;15245.31;;;-142.83;87.22
9129;BME280;4599;50.906;6.786;2023-03-15T00:50:00;15249.41;;;-142.83;87.10
9129;BME280;4599;50.906;6.786;2023-03-15T00:54:02;15249.41;;;-142.83;86.87
9129;BME280;4599;50.906;6.786;2023-03-15T00:58:05;15220.78;;;-142.83;87.05
9129;BME280;4599;50.906;6.786;2023-03-15T01:02:06;15208.50;;;-142.83;86.74
9129;BME280;4599;50.906;6.786;2023-03-15T01:06:10;15216.69;;;-142.83;87.47
9129;BME280;4599;50.906;6.786;2023-03-15T01:10:13;15233.03;;;-142.83;87.16
9129;BME280;4599;50.906;6.786;2023-03-15T01:14:16;15224.88;;;-142.83;87.69
9129;BME280;4599;50.906;6.786;2023-03-15T01:18:18;15228.97;;;-142.83;87.33
9129;BME280;4599;50.906;6.786;2023-03-15T01:22:21;15220.78;;;-142.83;86.51
9129;BME280;4599;50.906;6.786;2023-03-15T01:26:22;15251.44;;;-142.83;86.39
9129;BME280;4599;50.906;6.786;2023-03-15T01:30:25;15214.66;;;-142.83;88.13
9129;BME280;4599;50.906;6.786;2023-03-15T01:34:27;15237.13;;;-142.83;89.84
9129;BME280;4599;50.906;6.786;2023-03-15T01:38:29;15237.13;;;-142.83;91.45
9129;BME280;4599;50.906;6.786;2023-03-15T01:42:31;15216.69;;;-142.83;92.11
9129;BME280;4599;50.906;6.786;2023-03-15T01:46:34;15206.47;;;-142.83;92.38
9129;BME280;4599;50.906;6.786;2023-03-15T01:50:38;15188.06;;;-142.83;92.95
9129;BME280;4599;50.906;6.786;2023-03-15T01:54:42;15177.84;;;-142.83;93.00
9129;BME280;4599;50.906;6.786;2023-03-15T01:58:46;15202.38;;;-142.83;93.24
9129;BME280;4599;50.906;6.786;2023-03-15T02:02:52;15177.84;;;-142.83;93.08
9129;BME280;4599;50.906;6.786;2023-03-15T02:06:55;15196.25;;;-142.83;93.17
9129;BME280;4599;50.906;6.786;2023-03-15T02:11:00;15200.34;;;-142.83;92.53
9129;BME280;4599;50.906;6.786;2023-03-15T02:15:05;15171.72;;;-142.83;92.67
9129;BME280;4599;50.906;6.786;2023-03-15T02:19:15;15155.38;;;-142.83;92.26
9129;BME280;4599;50.906;6.786;2023-03-15T02:23:21;15210.56;;;-142.83;92.35
9129;BME280;4599;50.906;6.786;2023-03-15T02:27:28;15179.91;;;-142.83;92.93
9129;BME280;4599;50.906;6.786;2023-03-15T02:31:32;15196.25;;;-142.83;92.49
9129;BME280;4599;50.906;6.786;2023-03-15T02:35:34;15196.25;;;-142.83;92.87
9129;BME280;4599;50.906;6.786;2023-03-15T02:39:35;15218.75;;;-142.83;93.07
9129;BME280;4599;50.906;6.786;2023-03-15T02:43:39;15228.97;;;-142.83;92.86
9129;BME280;4599;50.906;6.786;2023-03-15T02:47:43;15190.13;;;-142.83;93.11
9129;BME280;4599;50.906;6.786;2023-03-15T02:51:45;15214.66;;;-142.83;93.10
9129;BME280;4599;50.906;6.786;2023-03-15T02:55:47;15186.03;;;-142.83;93.01
9129;BME280;4599;50.906;6.786;2023-03-15T02:59:50;15200.34;;;-142.83;93.11
9129;BME280;4599;50.906;6.786;2023-03-15T03:03:51;15186.03;;;-142.83;93.25
9129;BME280;4599;50.906;6.786;2023-03-15T03:07:52;15220.78;;;-142.83;93.18
9129;BME280;4599;50.906;6.786;2023-03-15T03:11:54;15226.91;;;-142.83;93.69
9129;BME280;4599;50.906;6.786;2023-03-15T03:15:57;15208.50;;;-142.83;93.21
9129;BME280;4599;50.906;6.786;2023-03-15T03:19:59;15190.13;;;-142.83;93.37
9129;BME280;4599;50.906;6.786;2023-03-15T03:24:00;15214.66;;;-142.83;93.40
9129;BME280;4599;50.906;6.786;2023-03-15T03:28:02;15220.78;;;-142.83;93.51
9129;BME280;4599;50.906;6.786;2023-03-15T03:32:05;15228.97;;;-142.83;93.28
9129;BME280;4599;50.906;6.786;2023-03-15T03:36:07;15202.38;;;-142.83;93.60
9129;BME280;4599;50.906;6.786;2023-03-15T03:40:10;15198.28;;;-142.83;93.69
9129;BME280;4599;50.906;6.786;2023-03-15T03:44:11;15216.69;;;-142.83;93.14
9129;BME280;4599;50.906;6.786;2023-03-15T03:48:14;15208.50;;;-142.83;93.18
9129;BME280;4599;50.906;6.786;2023-03-15T03:52:16;15226.91;;;-142.83;93.60
9129;BME280;4599;50.906;6.786;2023-03-15T03:56:17;15212.59;;;-142.83;93.51
9129;BME280;4599;50.906;6.786;2023-03-15T04:00:19;15206.47;;;-142.83;93.55
9129;BME280;4599;50.906;6.786;2023-03-15T04:04:23;15224.88;;;-142.83;93.73
9129;BME280;4599;50.906;6.786;2023-03-15T04:08:25;15220.78;;;-142.83;93.70
9129;BME280;4599;50.906;6.786;2023-03-15T04:12:27;15212.59;;;-142.83;93.66
9129;BME280;4599;50.906;6.786;2023-03-15T04:16:28;15216.69;;;-142.83;93.79
9129;BME280;4599;50.906;6.786;2023-03-15T04:20:31;15208.50;;;-142.83;93.60
9129;BME280;4599;50.906;6.786;2023-03-15T04:24:33;15208.50;;;-142.83;94.31
9129;BME280;4599;50.906;6.786;2023-03-15T04:28:35;15212.59;;;-142.83;94.12
9129;BME280;4599;50.906;6.786;2023-03-15T04:32:36;15216.69;;;-142.83;93.85
9129;BME280;4599;50.906;6.786;2023-03-15T04:36:40;15214.66;;;-142.83;93.91
9129;BME280;4599;50.906;6.786;2023-03-15T04:40:41;15216.69;;;-142.83;93.64
9129;BME280;4599;50.906;6.786;2023-03-15T04:44:43;15241.22;;;-142.83;93.96
9129;BME280;4599;50.906;6.786;2023-03-15T04:48:44;15204.44;;;-142.83;94.19
9129;BME280;4599;50.906;6.786;2023-03-15T04:52:47;15208.50;;;-142.83;94.57
9129;BME280;4599;50.906;6.786;2023-03-15T04:56:49;15206.47;;;-142.83;94.43
9129;BME280;4599;50.906;6.786;2023-03-15T05:00:52;15192.16;;;-142.83;94.35
9129;BME280;4599;50.906;6.786;2023-03-15T05:04:53;15228.97;;;-142.83;94.52
9129;BME280;4599;50.906;6.786;2023-03-15T05:08:56;15200.34;;;-142.83;94.63
9129;BME280;4599;50.906;6.786;2023-03-15T05:12:59;15222.81;;;-142.83;94.40
9129;BME280;4599;50.906;6.786;2023-03-15T05:17:01;15188.06;;;-142.83;94.11
9129;BME280;4599;50.906;6.786;2023-03-15T05:21:02;15179.91;;;-142.83;93.83
9129;BME280;4599;50.906;6.786;2023-03-15T05:25:07;15192.16;;;-142.83;93.90
9129;BME280;4599;50.906;6.786;2023-03-15T05:29:09;15192.16;;;-142.83;93.45
9129;BME280;4599;50.906;6.786;2023-03-15T05:33:11;15235.09;;;-142.83;93.67
9129;BME280;4599;50.906;6.786;2023-03-15T05:37:12;15218.75;;;-142.83;93.58
9129;BME280;4599;50.906;6.786;2023-03-15T05:41:15;15204.44;;;-142.83;93.97
9129;BME280;4599;50.906;6.786;2023-03-15T05:45:17;15208.50;;;-142.83;93.77
9129;BME280;4599;50.906;6.786;2023-03-15T05:49:20;15194.22;;;-142.83;93.99
9129;BME280;4599;50.906;6.786;2023-03-15T05:53:21;15200.34;;;-142.83;93.78
9129;BME280;4599;50.906;6.786;2023-03-15T05:57:24;15204.44;;;-142.83;94.25
9129;BME280;4599;50.906;6.786;2023-03-15T06:01:26;15188.06;;;-142.83;94.52
9129;BME280;4599;50.906;6.786;2023-03-15T06:05:27;15216.69;;;-142.83;94.15
9129;BME280;4599;50.906;6.786;2023-03-15T06:09:29;15210.56;;;-142.83;94.41
9129;BME280;4599;50.906;6.786;2023-03-15T06:13:32;15188.06;;;-142.83;94.17
9129;BME280;4599;50.906;6.786;2023-03-15T06:17:33;15226.91;;;-142.83;94.22
9129;BME280;4599;50.906;6.786;2023-03-15T06:21:35;15186.03;;;-142.83;94.04
9129;BME280;4599;50.906;6.786;2023-03-15T06:25:36;15204.44;;;-142.83;94.18
9129;BME280;4599;50.906;6.786;2023-03-15T06:29:39;15247.34;;;-142.83;94.21
9129;BME280;4599;50.906;6.786;2023-03-15T06:33:41;15216.69;;;-142.83;94.08
9129;BME280;4599;50.906;6.786;2023-03-15T06:37:42;15181.94;;;-142.83;93.79
9129;BME280;4599;50.906;6.786;2023-03-15T06:41:44;15198.28;;;-142.83;93.83
9129;BME280;4599;50.906;6.786;2023-03-15T06:45:47;15220.78;;;-142.83;93.73
9129;BME280;4599;50.906;6.786;2023-03-15T06:49:49;15196.25;;;-142.83;93.55
9129;BME280;4599;50.906;6.786;2023-03-15T06:53:51;15183.97;;;-142.83;93.62
9129;BME280;4599;50.906;6.786;2023-03-15T06:57:52;15196.25;;;-142.83;93.97
9129;BME280;4599;50.906;6.786;2023-03-15T07:01:55;15206.47;;;-142.83;93.77
9129;BME280;4599;50.906;6.786;2023-03-15T07:05:57;15196.25;;;-142.83;93.83
9129;BME280;4599;50.906;6.786;2023-03-15T07:09:58;15183.97;;;-142.83;93.81
9129;BME280;4599;50.906;6.786;2023-03-15T07:14:00;15208.50;;;-142.83;93.39
9129;BME280;4599;50.906;6.786;2023-03-15T07:18:03;15188.06;;;-142.83;93.81
9129;BME280;4599;50.906;6.786;2023-03-15T07:22:05;15194.22;;;-142.83;93.58
9129;BME280;4599;50.906;6.786;2023-03-15T07:26:07;15192.16;;;-142.83;93.85
9129;BME280;4599;50.906;6.786;2023-03-15T07:30:10;15196.25;;;-142.83;93.99
9129;BME280;4599;50.906;6.786;2023-03-15T07:34:13;15208.50;;;-142.83;94.31
9129;BME280;4599;50.906;6.786;2023-03-15T07:38:14;15167.63;;;-142.83;93.92
9129;BME280;4599;50.906;6.786;2023-03-15T07:42:16;15173.75;;;-142.83;93.60
9129;BME280;4599;50.906;6.786;2023-03-15T07:46:17;15206.47;;;-142.83;92.64
9129;BME280;4599;50.906;6.786;2023-03-15T07:50:21;15224.88;;;-142.83;92.97
9129;BME280;4599;50.906;6.786;2023-03-15T07:54:22;15204.44;;;-142.83;92.30
9129;BME280;4599;50.906;6.786;2023-03-15T07:58:24;15208.50;;;-142.83;91.79
9129;BME280;4599;50.906;6.786;2023-03-15T08:02:25;15183.97;;;-142.83;90.90
9129;BME280;4599;50.906;6.786;2023-03-15T08:06:32;15228.97;;;-142.83;91.36
9129;BME280;4599;50.906;6.786;2023-03-15T08:10:33;15188.06;;;-142.83;91.79
9129;BME280;4599;50.906;6.786;2023-03-15T08:14:35;15208.50;;;-142.83;91.33
9129;BME280;4599;50.906;6.786;2023-03-15T08:18:36;15206.47;;;-142.83;90.98
9129;BME280;4599;50.906;6.786;2023-03-15T08:22:39;15167.63;;;-142.83;91.63
9129;BME280;4599;50.906;6.786;2023-03-15T08:26:41;15218.75;;;-142.83;91.40
9129;BME280;4599;50.906;6.786;2023-03-15T08:30:43;15216.69;;;-142.83;91.85
9129;BME280;4599;50.906;6.786;2023-03-15T08:34:44;15216.69;;;-142.83;91.68
9129;BME280;4599;50.906;6.786;2023-03-15T08:38:47;15212.59;;;-142.83;91.22
9129;BME280;4599;50.906;6.786;2023-03-15T08:42:49;15208.50;;;-142.83;90.22
9129;BME280;4599;50.906;6.786;2023-03-15T08:46:51;15206.47;;;-142.83;90.47
9129;BME280;4599;50.906;6.786;2023-03-15T08:50:52;15208.50;;;-142.83;91.16
9129;BME280;4599;50.906;6.786;2023-03-15T08:54:56;15200.34;;;-142.83;90.57
9129;BME280;4599;50.906;6.786;2023-03-15T08:58:57;15177.84;;;-142.83;90.34
9129;BME280;4599;50.906;6.786;2023-03-15T09:02:59;15196.25;;;-142.83;88.05
9129;BME280;4599;50.906;6.786;2023-03-15T09:07:01;15220.78;;;-142.83;87.81
9129;BME280;4599;50.906;6.786;2023-03-15T09:11:04;15183.97;;;-142.83;88.68
9129;BME280;4599;50.906;6.786;2023-03-15T09:15:06;15237.13;;;-142.83;88.21
9129;BME280;4599;50.906;6.786;2023-03-15T09:19:09;15255.53;;;-142.83;85.97
9129;BME280;4599;50.906;6.786;2023-03-15T09:23:10;15237.13;;;-142.83;86.71
9129;BME280;4599;50.906;6.786;2023-03-15T09:27:14;15239.19;;;-142.83;85.08
9129;BME280;4599;50.906;6.786;2023-03-15T09:31:15;15208.50;;;-142.83;85.49
9129;BME280;4599;50.906;6.786;2023-03-15T09:35:18;15245.31;;;-142.83;83.15
9129;BME280;4599;50.906;6.786;2023-03-15T09:39:21;15241.22;;;-142.83;84.98
9129;BME280;4599;50.906;6.786;2023-03-15T09:48:02;15280.06;;;-142.83;83.03
9129;BME280;4599;50.906;6.786;2023-03-15T09:52:23;15273.94;;;-142.83;81.06
9129;BME280;4599;50.906;6.786;2023-03-15T09:56:28;15363.88;;;-142.83;78.51
9129;BME280;4599;50.906;6.786;2023-03-15T10:00:37;15427.25;;;-142.83;71.67
9129;BME280;4599;50.906;6.786;2023-03-15T10:04:42;15484.50;;;-142.83;70.31
9129;BME280;4599;50.906;6.786;2023-03-15T10:08:46;15693.03;;;-142.83;61.92
9129;BME280;4599;50.906;6.786;2023-03-15T10:12:51;15490.63;;;-142.83;62.13
9129;BME280;4599;50.906;6.786;2023-03-15T10:17:06;15447.69;;;-142.83;65.72
9129;BME280;4599;50.906;6.786;2023-03-15T10:21:25;15412.94;;;-142.83;66.25
9129;BME280;4599;50.906;6.786;2023-03-15T10:25:31;15707.34;;;-142.83;62.75
9129;BME280;4599;50.906;6.786;2023-03-15T10:29:34;15809.59;;;-142.83;60.46
9129;BME280;4599;50.906;6.786;2023-03-15T10:33:37;15635.78;;;-142.83;58.13
9129;BME280;4599;50.906;6.786;2023-03-15T10:37:42;15746.19;;;-142.83;61.77
9129;BME280;4599;50.906;6.786;2023-03-15T10:41:45;15619.44;;;-142.83;58.47
9129;BME280;4599;50.906;6.786;2023-03-15T10:45:59;15515.16;;;-142.83;59.35
9129;BME280;4599;50.906;6.786;2023-03-15T10:50:01;15864.78;;;-142.83;54.16
9129;BME280;4599;50.906;6.786;2023-03-15T10:54:10;15836.16;;;-142.83;54.18
9129;BME280;4599;50.906;6.786;2023-03-15T10:58:19;15596.94;;;-142.83;57.68
9129;BME280;4599;50.906;6.786;2023-03-15T11:02:23;15611.25;;;-142.83;59.26
9129;BME280;4599;50.906;6.786;2023-03-15T11:06:26;15862.75;;;-142.83;56.75
9129;BME280;4599;50.906;6.786;2023-03-15T11:10:33;15793.22;;;-142.83;53.29
9129;BME280;4599;50.906;6.786;2023-03-15T11:14:39;15623.53;;;-142.83;56.11
9129;BME280;4599;50.906;6.786;2023-03-15T11:18:45;15596.94;;;-142.83;57.14
9129;BME280;4599;50.906;6.786;2023-03-15T11:22:50;15596.94;;;-142.83;56.90
9129;BME280;4599;50.906;6.786;2023-03-15T11:26:57;15568.31;;;-142.83;57.88
9129;BME280;4599;50.906;6.786;2023-03-15T11:31:00;15596.94;;;-142.83;58.08
9129;BME280;4599;50.906;6.786;2023-03-15T11:35:04;15605.13;;;-142.83;57.95
9129;BME280;4599;50.906;6.786;2023-03-15T11:39:11;15572.41;;;-142.83;56.52
9129;BME280;4599;50.906;6.786;2023-03-15T11:43:18;15648.06;;;-142.83;56.43
9129;BME280;4599;50.906;6.786;2023-03-15T11:47:33;15562.19;;;-142.83;59.58
9129;BME280;4599;50.906;6.786;2023-03-15T11:51:38;15523.34;;;-142.83;58.10
9129;BME280;4599;50.906;6.786;2023-03-15T11:55:45;15529.47;;;-142.83;59.37
9129;BME280;4599;50.906;6.786;2023-03-15T11:59:48;15502.91;;;-142.83;62.55
9129;BME280;4599;50.906;6.786;2023-03-15T12:03:50;15543.78;;;-142.83;60.01
9129;BME280;4599;50.906;6.786;2023-03-15T12:08:14;15572.41;;;-142.83;56.84
9129;BME280;4599;50.906;6.786;2023-03-15T12:12:42;15490.63;;;-142.83;63.01
9129;BME280;4599;50.906;6.786;2023-03-15T12:16:49;15492.69;;;-142.83;62.48
9129;BME280;4599;50.906;6.786;2023-03-15T12:21:07;15433.41;;;-142.83;63.84
9129;BME280;4599;50.906;6.786;2023-03-15T12:25:12;15376.16;;;-142.83;68.05
9129;BME280;4599;50.906;6.786;2023-03-15T12:29:19;15449.75;;;-142.83;64.82
9129;BME280;4599;50.906;6.786;2023-03-15T12:33:24;15599.00;;;-142.83;61.75
9129;BME280;4599;50.906;6.786;2023-03-15T12:37:30;15727.81;;;-142.83;54.55
9129;BME280;4599;50.906;6.786;2023-03-15T12:41:42;15682.81;;;-142.83;54.83
9129;BME280;4599;50.906;6.786;2023-03-15T12:45:45;15625.56;;;-142.83;53.27
9129;BME280;4599;50.906;6.786;2023-03-15T12:49:48;15705.31;;;-142.83;51.38
9129;BME280;4599;50.906;6.786;2023-03-15T12:53:51;15639.88;;;-142.83;54.02
9129;BME280;4599;50.906;6.786;2023-03-15T12:57:54;15637.84;;;-142.83;56.42
9129;BME280;4599;50.906;6.786;2023-03-15T13:01:58;15660.31;;;-142.83;52.75
9129;BME280;4599;50.906;6.786;2023-03-15T13:06:10;15701.22;;;-142.83;52.14
9129;BME280;4599;50.906;6.786;2023-03-15T13:14:46;15711.44;;;-142.83;48.95
9129;BME280;4599;50.906;6.786;2023-03-15T13:18:57;15715.53;;;-142.83;52.06
9129;BME280;4599;50.906;6.786;2023-03-15T13:23:12;15721.66;;;-142.83;49.75
9129;BME280;4599;50.906;6.786;2023-03-15T13:27:25;15674.63;;;-142.83;52.44
9129;BME280;4599;50.906;6.786;2023-03-15T13:31:30;15660.31;;;-142.83;53.61
9129;BME280;4599;50.906;6.786;2023-03-15T13:35:33;15776.88;;;-142.83;49.21
9129;BME280;4599;50.906;6.786;2023-03-15T13:39:54;15772.78;;;-142.83;49.21
9129;BME280;4599;50.906;6.786;2023-03-15T13:43:59;15850.47;;;-142.83;47.57
9129;BME280;4599;50.906;6.786;2023-03-15T13:48:03;15885.22;;;-142.83;46.67
9129;BME280;4599;50.906;6.786;2023-03-15T13:52:05;15850.47;;;-142.83;46.46
9129;BME280;4599;50.906;6.786;2023-03-15T13:56:27;15852.53;;;-142.83;46.86
9129;BME280;4599;50.906;6.786;2023-03-15T14:00:38;15821.84;;;-142.83;46.60
9129;BME280;4599;50.906;6.786;2023-03-15T14:04:42;15725.75;;;-142.83;51.97
9129;BME280;4599;50.906;6.786;2023-03-15T14:08:46;15752.34;;;-142.83;50.02
9129;BME280;4599;50.906;6.786;2023-03-15T14:12:50;15770.72;;;-142.83;47.87
9129;BME280;4599;50.906;6.786;2023-03-15T14:16:55;15809.59;;;-142.83;47.86
9129;BME280;4599;50.906;6.786;2023-03-15T14:21:11;15723.72;;;-142.83;50.36
9129;BME280;4599;50.906;6.786;2023-03-15T14:25:20;15797.31;;;-142.83;48.65
9129;BME280;4599;50.906;6.786;2023-03-15T14:29:27;15789.13;;;-142.83;47.32
9129;BME280;4599;50.906;6.786;2023-03-15T14:33:32;15834.13;;;-142.83;46.38
9129;BME280;4599;50.906;6.786;2023-03-15T14:37:36;15832.06;;;-142.83;45.79
9129;BME280;4599;50.906;6.786;2023-03-15T14:41:38;15846.38;;;-142.83;45.50
9129;BME280;4599;50.906;6.786;2023-03-15T14:45:43;15834.13;;;-142.83;47.53
9129;BME280;4599;50.906;6.786;2023-03-15T14:49:46;15868.88;;;-142.83;44.77
9129;BME280;4599;50.906;6.786;2023-03-15T14:53:50;15879.09;;;-142.83;43.99
9129;BME280;4599;50.906;6.786;2023-03-15T14:57:52;15903.63;;;-142.83;44.06
9129;BME280;4599;50.906;6.786;2023-03-15T15:01:56;15875.00;;;-142.83;43.78
9129;BME280;4599;50.906;6.786;2023-03-15T15:06:00;15915.91;;;-142.83;44.53
9129;BME280;4599;50.906;6.786;2023-03-15T15:10:03;15883.19;;;-142.83;44.14
9129;BME280;4599;50.906;6.786;2023-03-15T15:14:08;15862.75;;;-142.83;45.53
9129;BME280;4599;50.906;6.786;2023-03-15T15:18:15;15879.09;;;-142.83;43.12
9129;BME280;4599;50.906;6.786;2023-03-15T15:22:18;15889.31;;;-142.83;45.26
9129;BME280;4599;50.906;6.786;2023-03-15T15:26:22;15872.97;;;-142.83;46.25
9129;BME280;4599;50.906;6.786;2023-03-15T15:30:24;15811.63;;;-142.83;47.79
9129;BME280;4599;50.906;6.786;2023-03-15T15:34:26;15844.34;;;-142.83;45.76
9129;BME280;4599;50.906;6.786;2023-03-15T15:38:30;15825.94;;;-142.83;46.45
9129;BME280;4599;50.906;6.786;2023-03-15T15:42:32;15787.09;;;-142.83;49.78
9129;BME280;4599;50.906;6.786;2023-03-15T15:46:35;15809.59;;;-142.83;47.59
9129;BME280;4599;50.906;6.786;2023-03-15T15:50:38;15801.41;;;-142.83;47.94
9129;BME280;4599;50.906;6.786;2023-03-15T15:54:40;15797.31;;;-142.83;47.67
9129;BME280;4599;50.906;6.786;2023-03-15T15:58:42;15899.53;;;-142.83;44.09
9129;BME280;4599;50.906;6.786;2023-03-15T16:02:45;15877.06;;;-142.83;44.58
9129;BME280;4599;50.906;6.786;2023-03-15T16:06:53;15866.84;;;-142.83;44.48
9129;BME280;4599;50.906;6.786;2023-03-15T16:10:55;15803.44;;;-142.83;48.83
9129;BME280;4599;50.906;6.786;2023-03-15T16:14:56;15766.66;;;-142.83;48.62
9129;BME280;4599;50.906;6.786;2023-03-15T16:18:58;15827.97;;;-142.83;47.04
9129;BME280;4599;50.906;6.786;2023-03-15T16:23:02;15807.53;;;-142.83;47.62
9129;BME280;4599;50.906;6.786;2023-03-15T16:27:06;15676.69;;;-142.83;53.70
9129;BME280;4599;50.906;6.786;2023-03-15T16:31:08;15729.84;;;-142.83;51.13
9129;BME280;4599;50.906;6.786;2023-03-15T16:35:10;15744.16;;;-142.83;50.02
9129;BME280;4599;50.906;6.786;2023-03-15T16:39:15;15605.13;;;-142.83;57.07
9129;BME280;4599;50.906;6.786;2023-03-15T16:43:17;15560.16;;;-142.83;58.66
9129;BME280;4599;50.906;6.786;2023-03-15T16:47:19;15594.91;;;-142.83;59.10
9129;BME280;4599;50.906;6.786;2023-03-15T16:51:21;15629.66;;;-142.83;57.38
9129;BME280;4599;50.906;6.786;2023-03-15T16:55:26;15572.41;;;-142.83;60.91
9129;BME280;4599;50.906;6.786;2023-03-15T16:59:28;15646.03;;;-142.83;56.44
9129;BME280;4599;50.906;6.786;2023-03-15T17:03:30;15564.25;;;-142.83;62.42
9129;BME280;4599;50.906;6.786;2023-03-15T17:07:33;15515.16;;;-142.83;63.08
9129;BME280;4599;50.906;6.786;2023-03-15T17:11:38;15482.47;;;-142.83;63.99
9129;BME280;4599;50.906;6.786;2023-03-15T17:15:41;15507.00;;;-142.83;64.06
9129;BME280;4599;50.906;6.786;2023-03-15T17:19:43;15535.63;;;-142.83;64.82
9129;BME280;4599;50.906;6.786;2023-03-15T17:23:45;15462.00;;;-142.83;66.22
9129;BME280;4599;50.906;6.786;2023-03-15T17:27:49;15496.78;;;-142.83;66.20
9129;BME280;4599;50.906;6.786;2023-03-15T17:31:51;15462.00;;;-142.83;66.33
9129;BME280;4599;50.906;6.786;2023-03-15T17:35:52;15478.38;;;-142.83;66.30
9129;BME280;4599;50.906;6.786;2023-03-15T17:39:54;15494.72;;;-142.83;66.14
9129;BME280;4599;50.906;6.786;2023-03-15T17:43:57;15486.53;;;-142.83;67.34
9129;BME280;4599;50.906;6.786;2023-03-15T17:48:00;15406.81;;;-142.83;68.19
9129;BME280;4599;50.906;6.786;2023-03-15T17:52:02;15421.13;;;-142.83;69.43
9129;BME280;4599;50.906;6.786;2023-03-15T17:56:04;15417.03;;;-142.83;70.43
9129;BME280;4599;50.906;6.786;2023-03-15T18:00:11;15441.56;;;-142.83;71.24
9129;BME280;4599;50.906;6.786;2023-03-15T18:04:14;15449.75;;;-142.83;70.84
9129;BME280;4599;50.906;6.786;2023-03-15T18:08:18;15421.13;;;-142.83;70.91
9129;BME280;4599;50.906;6.786;2023-03-15T18:12:20;15435.44;;;-142.83;71.01
9129;BME280;4599;50.906;6.786;2023-03-15T18:16:24;15386.38;;;-142.83;71.53
9129;BME280;4599;50.906;6.786;2023-03-15T18:20:25;15445.66;;;-142.83;70.89
9129;BME280;4599;50.906;6.786;2023-03-15T18:24:27;15433.41;;;-142.83;70.99
9129;BME280;4599;50.906;6.786;2023-03-15T18:28:29;15445.66;;;-142.83;69.99
9129;BME280;4599;50.906;6.786;2023-03-15T18:32:32;15425.22;;;-142.83;70.50
9129;BME280;4599;50.906;6.786;2023-03-15T18:36:34;15396.59;;;-142.83;71.50
9129;BME280;4599;50.906;6.786;2023-03-15T18:40:35;15394.56;;;-142.83;72.13
9129;BME280;4599;50.906;6.786;2023-03-15T18:44:37;15453.84;;;-142.83;66.22
9129;BME280;4599;50.906;6.786;2023-03-15T18:48:41;15453.84;;;-142.83;68.45
9129;BME280;4599;50.906;6.786;2023-03-15T18:52:43;15470.19;;;-142.83;66.81
9129;BME280;4599;50.906;6.786;2023-03-15T18:56:45;15517.22;;;-142.83;62.93
9129;BME280;4599;50.906;6.786;2023-03-15T19:00:47;15525.41;;;-142.83;61.99
9129;BME280;4599;50.906;6.786;2023-03-15T19:04:51;15468.16;;;-142.83;66.06
9129;BME280;4599;50.906;6.786;2023-03-15T19:08:52;15445.66;;;-142.83;67.81
9129;BME280;4599;50.906;6.786;2023-03-15T19:12:54;15449.75;;;-142.83;69.01
9129;BME280;4599;50.906;6.786;2023-03-15T19:16:55;15443.63;;;-142.83;69.83
9129;BME280;4599;50.906;6.786;2023-03-15T19:20:59;15417.03;;;-142.83;70.28
9129;BME280;4599;50.906;6.786;2023-03-15T19:25:00;15437.47;;;-142.83;69.46
9129;BME280;4599;50.906;6.786;2023-03-15T19:29:02;15400.69;;;-142.83;71.18
9129;BME280;4599;50.906;6.786;2023-03-15T19:33:04;15394.56;;;-142.83;71.58
9129;BME280;4599;50.906;6.786;2023-03-15T19:37:07;15462.00;;;-142.83;69.42
9129;BME280;4599;50.906;6.786;2023-03-15T19:41:08;15433.41;;;-142.83;70.50
9129;BME280;4599;50.906;6.786;2023-03-15T19:45:13;15437.47;;;-142.83;72.10
9129;BME280;4599;50.906;6.786;2023-03-15T19:49:15;15388.41;;;-142.83;72.87
9129;BME280;4599;50.906;6.786;2023-03-15T19:53:19;15449.75;;;-142.83;70.63
9129;BME280;4599;50.906;6.786;2023-03-15T19:57:21;15423.16;;;-142.83;70.10
9129;BME280;4599;50.906;6.786;2023-03-15T20:01:23;15419.09;;;-142.83;70.23
9129;BME280;4599;50.906;6.786;2023-03-15T20:05:24;15464.06;;;-142.83;67.20
9129;BME280;4599;50.906;6.786;2023-03-15T20:09:27;15468.16;;;-142.83;68.67
9129;BME280;4599;50.906;6.786;2023-03-15T20:13:29;15443.63;;;-142.83;68.18
9129;BME280;4599;50.906;6.786;2023-03-15T20:17:30;15474.28;;;-142.83;65.83
9129;BME280;4599;50.906;6.786;2023-03-15T20:21:32;15484.50;;;-142.83;66.27
9129;BME280;4599;50.906;6.786;2023-03-15T20:25:35;15474.28;;;-142.83;64.41
9129;BME280;4599;50.906;6.786;2023-03-15T20:29:36;15513.13;;;-142.83;65.18
9129;BME280;4599;50.906;6.786;2023-03-15T20:33:39;15498.81;;;-142.83;64.13
9129;BME280;4599;50.906;6.786;2023-03-15T20:37:44;15468.16;;;-142.83;64.51
9129;BME280;4599;50.906;6.786;2023-03-15T20:41:46;15498.81;;;-142.83;63.92
9129;BME280;4599;50.906;6.786;2023-03-15T20:45:53;15498.81;;;-142.83;63.08
9129;BME280;4599;50.906;6.786;2023-03-15T20:49:54;15549.94;;;-142.83;61.19
9129;BME280;4599;50.906;6.786;2023-03-15T20:53:56;15507.00;;;-142.83;62.71
9129;BME280;4599;50.906;6.786;2023-03-15T20:57:59;15515.16;;;-142.83;62.90
9129;BME280;4599;50.906;6.786;2023-03-15T21:02:00;15521.31;;;-142.83;61.94
9129;BME280;4599;50.906;6.786;2023-03-15T21:06:03;15533.56;;;-142.83;60.50
9129;BME280;4599;50.906;6.786;2023-03-15T21:10:06;15545.84;;;-142.83;62.19
9129;BME280;4599;50.906;6.786;2023-03-15T21:14:10;15533.56;;;-142.83;62.27
9129;BME280;4599;50.906;6.786;2023-03-15T21:18:12;15521.31;;;-142.83;63.75
9129;BME280;4599;50.906;6.786;2023-03-15T21:22:14;15537.66;;;-142.83;62.33
9129;BME280;4599;50.906;6.786;2023-03-15T21:26:16;15545.84;;;-142.83;59.72
9129;BME280;4599;50.906;6.786;2023-03-15T21:30:19;15529.47;;;-142.83;59.61
9129;BME280;4599;50.906;6.786;2023-03-15T21:34:23;15502.91;;;-142.83;59.92
9129;BME280;4599;50.906;6.786;2023-03-15T21:38:25;15570.38;;;-142.83;60.65